createdAt,value
2022-11-29T00:06:35.914Z,11.27
2022-11-29T00:13:37.578Z,9.70
2022-11-29T00:20:39.337Z,12.40
2022-11-29T00:27:40.882Z,12.57
2022-11-29T00:34:42.764Z,7.15
2022-11-29T00:41:45.038Z,11.90
2022-11-29T00:48:46.674Z,12.30
2022-11-29T00:55:48.693Z,8.10
2022-11-29T01:02:50.269Z,10.80
2022-11-29T01:09:51.838Z,11.73
2022-11-29T01:16:53.421Z,9.68
2022-11-29T01:23:55.009Z,9.70
2022-11-29T01:30:56.687Z,12.20
2022-11-29T01:37:58.268Z,10.75
2022-11-29T01:45:06.726Z,12.80
2022-11-29T01:52:17.634Z,13.43
2022-11-29T01:59:20.481Z,12.23
2022-11-29T02:06:22.041Z,10.75
2022-11-29T02:13:30.092Z,11.68
2022-11-29T02:21:05.200Z,11.52
2022-11-29T02:28:30.185Z,10.55
2022-11-29T02:36:10.939Z,10.25
2022-11-29T02:50:20.296Z,11.88
2022-11-29T02:57:38.794Z,10.55
2022-11-29T03:04:49.499Z,12.95
2022-11-29T03:18:55.926Z,12.02
2022-11-29T03:26:04.852Z,11.45
2022-11-29T03:33:17.019Z,12.55
2022-11-29T03:40:25.460Z,12.88
2022-11-29T03:47:35.887Z,12.30
2022-11-29T03:54:46.702Z,11.55
2022-11-29T04:01:53.652Z,10.02
2022-11-29T04:08:57.713Z,11.63
2022-11-29T04:16:29.123Z,12.75
2022-11-29T04:23:42.607Z,11.95
2022-11-29T04:31:04.580Z,13.88
2022-11-29T04:38:24.869Z,11.98
2022-11-29T04:45:56.239Z,12.10
2022-11-29T04:53:25.686Z,10.07
2022-11-29T05:00:27.247Z,12.40
2022-11-29T05:07:38.298Z,14.00
2022-11-29T05:15:17.646Z,11.63
2022-11-29T05:22:22.112Z,12.23
2022-11-29T05:30:08.652Z,12.30
2022-11-29T05:37:25.436Z,13.43
2022-11-29T05:44:41.699Z,11.32
2022-11-29T05:51:46.165Z,12.23
2022-11-29T05:58:52.854Z,11.27
2022-11-29T06:06:02.910Z,9.38
2022-11-29T06:13:27.667Z,10.43
2022-11-29T06:20:47.902Z,11.52
2022-11-29T06:28:07.094Z,9.00
2022-11-29T06:35:45.851Z,14.32
2022-11-29T06:42:48.869Z,12.43
2022-11-29T06:50:39.767Z,10.48
2022-11-29T07:05:30.560Z,11.95
2022-11-29T07:12:32.298Z,10.55
2022-11-29T07:20:05.918Z,12.07
2022-11-29T07:27:20.411Z,12.65
2022-11-29T07:34:38.857Z,10.13
2022-11-29T07:41:49.854Z,12.05
2022-11-29T07:48:53.510Z,9.43
2022-11-29T07:55:55.070Z,11.77
2022-11-29T08:02:56.671Z,10.80
2022-11-29T08:09:58.250Z,12.57
2022-11-29T08:16:59.815Z,9.75
2022-11-29T08:24:01.380Z,10.85
2022-11-29T08:31:07.700Z,12.98
2022-11-29T08:38:09.266Z,9.77
2022-11-29T08:45:11.147Z,12.63
2022-11-29T08:52:31.213Z,10.00
2022-11-29T08:59:32.790Z,11.97
2022-11-29T09:06:38.170Z,12.43
2022-11-29T09:13:45.073Z,12.52
2022-11-29T09:20:46.618Z,11.40
2022-11-29T09:27:48.239Z,12.88
2022-11-29T09:34:49.860Z,12.52
2022-11-29T09:42:12.378Z,12.05
2022-11-29T09:49:30.155Z,10.63
2022-11-29T09:56:42.336Z,11.85
2022-11-29T10:03:51.673Z,9.30
2022-11-29T10:10:56.305Z,11.35
2022-11-29T10:18:11.052Z,13.70
2022-11-29T10:25:19.245Z,12.68
2022-11-29T10:32:21.497Z,11.32
2022-11-29T10:39:28.898Z,11.70
2022-11-29T10:46:33.005Z,10.20
2022-11-29T10:53:37.806Z,11.50
2022-11-29T11:00:44.589Z,12.32
2022-11-29T11:07:47.394Z,12.20
2022-11-29T11:14:51.077Z,12.60
2022-11-29T11:21:52.727Z,11.23
2022-11-29T11:28:58.964Z,10.35
2022-11-29T11:36:08.419Z,12.65
2022-11-29T11:43:18.277Z,12.38
2022-11-29T11:50:33.780Z,11.83
2022-11-29T11:57:35.363Z,12.65
2022-11-29T12:04:36.919Z,13.55
2022-11-29T12:12:05.369Z,14.02
2022-11-29T12:19:21.929Z,12.73
2022-11-29T12:26:55.899Z,10.80
2022-11-29T12:34:09.296Z,13.95
2022-11-29T12:41:41.188Z,13.90
2022-11-29T12:48:49.327Z,14.68
2022-11-29T12:56:10.879Z,12.40
2022-11-29T13:03:18.157Z,12.18
2022-11-29T13:11:00.549Z,13.20
2022-11-29T13:18:14.861Z,16.02
2022-11-29T13:25:24.687Z,13.48
2022-11-29T13:32:37.261Z,12.80
2022-11-29T13:39:48.717Z,14.55
2022-11-29T13:46:56.535Z,12.40
2022-11-29T13:54:00.997Z,13.38
2022-11-29T14:01:09.650Z,14.02
2022-11-29T14:08:54.533Z,14.18
2022-11-29T14:15:58.895Z,13.15
2022-11-29T14:23:06.500Z,12.90
2022-11-29T14:30:32.272Z,15.23
2022-11-29T14:37:55.385Z,13.57
2022-11-29T14:45:00.624Z,14.23
2022-11-29T14:52:14.417Z,13.30
2022-11-29T14:59:38.834Z,12.10
2022-11-29T15:06:46.191Z,12.23
2022-11-29T15:13:59.060Z,13.10
2022-11-29T15:21:18.963Z,13.52
2022-11-29T15:28:22.981Z,12.40
2022-11-29T15:35:24.561Z,12.70
2022-11-29T15:42:31.253Z,14.30
2022-11-29T15:49:34.189Z,13.75
2022-11-29T15:57:02.955Z,12.18
2022-11-29T16:04:05.700Z,12.33
2022-11-29T16:11:07.332Z,14.63
2022-11-29T16:18:13.028Z,12.07
2022-11-29T16:25:18.940Z,13.38
2022-11-29T16:32:33.948Z,13.65
2022-11-29T16:39:35.587Z,13.45
2022-11-29T16:46:38.970Z,13.95
2022-11-29T16:53:47.528Z,14.55
2022-11-29T17:00:49.121Z,14.30
2022-11-29T17:07:50.893Z,13.75
2022-11-29T17:14:52.561Z,14.95
2022-11-29T17:21:54.120Z,13.63
2022-11-29T17:28:55.725Z,13.95
2022-11-29T17:35:57.443Z,15.68
2022-11-29T17:42:59.044Z,13.80
2022-11-29T17:50:00.681Z,14.82
2022-11-29T17:57:04.409Z,13.90
2022-11-29T18:04:06.195Z,14.18
2022-11-29T18:11:12.523Z,13.75
2022-11-29T18:18:14.159Z,12.52
2022-11-29T18:25:38.160Z,13.68
2022-11-29T18:32:37.371Z,13.75
2022-11-29T18:39:38.945Z,15.48
2022-11-29T18:46:41.515Z,15.57
2022-11-29T18:53:43.178Z,15.13
2022-11-29T19:00:44.845Z,16.27
2022-11-29T19:07:46.512Z,15.07
2022-11-29T19:14:50.015Z,16.35
2022-11-29T19:21:52.181Z,10.13
2022-11-29T19:28:53.850Z,15.73
2022-11-29T19:35:55.510Z,13.90
2022-11-29T19:42:57.068Z,10.40
2022-11-29T19:50:02.357Z,14.07
2022-11-29T19:57:04.542Z,16.75
2022-11-29T20:04:06.132Z,16.27
2022-11-29T20:11:27.964Z,16.35
2022-11-29T20:18:31.304Z,16.05
2022-11-29T20:25:33.676Z,15.52
2022-11-29T20:32:35.377Z,16.42
2022-11-29T20:39:58.218Z,15.30
2022-11-29T20:47:00.073Z,15.90
2022-11-29T20:54:01.660Z,17.35
2022-11-29T21:01:03.491Z,16.02
2022-11-29T21:08:05.275Z,16.80
2022-11-29T21:15:08.781Z,19.23
2022-11-29T21:22:39.509Z,15.20
2022-11-29T21:29:41.356Z,15.70
2022-11-29T21:36:42.958Z,15.93
2022-11-29T21:44:05.536Z,16.17
2022-11-29T21:51:06.733Z,13.13
2022-11-29T21:58:08.331Z,18.08
2022-11-29T22:05:09.995Z,12.48
2022-11-29T22:12:32.366Z,18.98
2022-11-29T22:19:34.310Z,16.08
2022-11-29T22:26:36.263Z,16.70
2022-11-29T22:33:38.005Z,17.38
2022-11-29T22:40:40.460Z,16.88
2022-11-29T22:47:42.044Z,18.55
2022-11-29T22:54:43.820Z,17.70
2022-11-29T23:01:45.675Z,16.10
2022-11-29T23:08:47.570Z,14.93
2022-11-29T23:15:49.176Z,17.20
2022-11-29T23:22:50.795Z,12.02
2022-11-29T23:29:52.756Z,14.55
2022-11-29T23:36:54.355Z,17.00
2022-11-29T23:43:56.081Z,18.27
2022-11-29T23:50:57.769Z,17.35
2022-11-29T23:58:00.703Z,16.85
